Terminal Aerodrome Forecast
Issued by NWS

Home | Current Version | Previous Version | Graphics & Text | Print | Product List | Glossary On
Versions: 1 2 3 4 5 6 7 8 9 10 11 12 13 14 15 16 17 18 19 20 21 22 23
000
FTUS43 KBIS 260500
TAFDIK
TAF
KDIK 260536Z 2606/2706 16005KT P6SM SCT140 BKN170
     FM260800 16004KT P6SM SCT090 OVC120
      TEMPO 2609/2611 2SM -SN BKN035 OVC060
     FM261100 14006KT 3SM -SN SCT010 OVC035
      TEMPO 2611/2615 1SM -SN SCT004 OVC008
     FM261500 13005KT P6SM BKN015
     FM261800 10005KT P6SM SCT018 BKN050 BKN130
     FM270200 14010KT P6SM VCSH BKN045 OVC090=

USA.gov is the U.S. government's official web portal to all federal, state and local government web resources and services.